Time;durP1;ratioP1;P1;durP2;ratioP2;P2;SDS_P1;SDS_P2;PMS_P1;PMS_P2;Temp;Humidity;BMP_temperature;BMP_pressure;BME280_temperature;BME280_humidity;BME280_pressure;Samples;Min_cycle;Max_cycle;Signal;HPM_P1;HPM_P2
2022/10/25 00:01:34;;;;;;;0.50;0.50;;;;;;;13.59;100.00;98591.13;4116104;28;21197;-47
2022/10/25 00:03:36;;;;;;;0.73;0.73;;;;;;;13.64;100.00;98582.88;4118369;28;20213;-46
2022/10/25 00:05:39;;;;;;;0.85;0.77;;;;;;;13.60;100.00;98580.94;4136159;28;20229;-47
2022/10/25 00:07:40;;;;;;;0.60;0.60;;;;;;;13.60;100.00;98587.28;4112542;28;20222;-47
2022/10/25 00:09:42;;;;;;;0.57;0.57;;;;;;;13.58;100.00;98583.94;4119258;28;20214;-47
2022/10/25 00:11:44;;;;;;;1.55;0.70;;;;;;;13.61;100.00;98586.19;4122728;28;20214;-47
2022/10/25 00:13:48;;;;;;;0.47;0.47;;;;;;;13.65;100.00;98586.47;4118288;28;20688;-49
2022/10/25 00:15:50;;;;;;;2.42;0.60;;;;;;;13.65;100.00;98580.97;4125939;28;20230;-46
2022/10/25 00:17:52;;;;;;;0.52;0.52;;;;;;;13.68;100.00;98584.00;4121651;28;20300;-46
2022/10/25 00:19:54;;;;;;;0.95;0.90;;;;;;;13.68;100.00;98580.41;4123647;28;20202;-47
2022/10/25 00:21:55;;;;;;;0.85;0.75;;;;;;;13.64;100.00;98587.56;4117847;28;20629;-47
2022/10/25 00:23:57;;;;;;;0.50;0.50;;;;;;;13.64;100.00;98585.63;4107599;28;20210;-46
2022/10/25 00:26:00;;;;;;;0.50;0.50;;;;;;;13.66;100.00;98586.22;4118221;28;20223;-47
2022/10/25 00:28:02;;;;;;;0.45;0.45;;;;;;;13.65;100.00;98583.72;4121224;28;20232;-47
2022/10/25 00:30:05;;;;;;;1.70;0.70;;;;;;;13.58;100.00;98580.38;4123161;28;20205;-46
2022/10/25 00:32:06;;;;;;;1.13;0.88;;;;;;;13.67;100.00;98587.84;4134930;28;20296;-46
2022/10/25 00:34:08;;;;;;;0.50;0.50;;;;;;;13.64;100.00;98580.13;4132901;28;20220;-47
2022/10/25 00:36:12;;;;;;;0.55;0.55;;;;;;;13.59;100.00;98584.78;4112232;28;20234;-48
2022/10/25 00:38:14;;;;;;;0.50;0.50;;;;;;;13.59;100.00;98588.38;4116224;28;20864;-47
2022/10/25 00:40:17;;;;;;;1.25;0.80;;;;;;;13.55;100.00;98590.00;4115417;28;20202;-46
2022/10/25 00:42:21;;;;;;;1.17;0.50;;;;;;;13.52;100.00;98597.94;4130771;28;20210;-47
2022/10/25 00:44:54;;;;;;;0.82;0.82;;;;;;;13.48;100.00;98594.91;4118694;28;20575;-46
2022/10/25 00:46:55;;;;;;;1.30;0.80;;;;;;;13.50;100.00;98600.97;4104203;28;20734;-47
2022/10/25 00:49:18;;;;;;;0.57;0.57;;;;;;;13.49;100.00;98596.56;4117354;28;20211;-47
2022/10/25 00:51:23;;;;;;;0.55;0.55;;;;;;;13.43;100.00;98614.13;4105446;28;20268;-46
2022/10/25 00:53:33;;;;;;;0.75;0.75;;;;;;;13.52;100.00;98612.53;4120470;28;20240;-47
2022/10/25 00:55:36;;;;;;;0.95;0.70;;;;;;;13.42;100.00;98617.13;4122986;28;20222;-46
2022/10/25 00:57:44;;;;;;;0.75;0.60;;;;;;;13.41;100.00;98619.06;4136584;28;20215;-48
2022/10/25 00:59:46;;;;;;;0.63;0.60;;;;;;;13.46;100.00;98624.59;4124296;28;20214;-47
2022/10/25 01:01:48;;;;;;;1.85;0.57;;;;;;;13.50;100.00;98617.44;4121029;28;20642;-48
2022/10/25 01:03:52;;;;;;;0.80;0.80;;;;;;;13.56;100.00;98619.13;4137409;28;20309;-46
2022/10/25 01:05:54;;;;;;;0.80;0.80;;;;;;;13.47;100.00;98620.75;4123933;28;20573;-47
2022/10/25 01:07:56;;;;;;;0.98;0.70;;;;;;;13.46;100.00;98619.09;4123735;28;20256;-46
2022/10/25 01:09:58;;;;;;;0.88;0.73;;;;;;;13.43;100.00;98619.63;4118859;28;20216;-45
2022/10/25 01:11:59;;;;;;;1.80;0.70;;;;;;;13.40;100.00;98620.16;4104262;28;20211;-46
2022/10/25 01:14:01;;;;;;;2.05;0.60;;;;;;;13.44;100.00;98626.75;4118968;28;20217;-46
2022/10/25 01:16:14;;;;;;;1.20;0.60;;;;;;;13.44;100.00;98626.75;4122818;28;20230;-47
2022/10/25 01:18:21;;;;;;;0.90;0.60;;;;;;;13.46;100.00;98624.59;4137769;28;20211;-47
2022/10/25 01:20:41;;;;;;;6.38;0.77;;;;;;;13.46;100.00;98627.34;4124980;28;20258;-47
2022/10/25 01:22:49;;;;;;;1.88;0.75;;;;;;;13.44;100.00;98621.25;4137209;28;20201;-46
2022/10/25 01:25:21;;;;;;;1.67;0.82;;;;;;;13.47;100.00;98626.25;4120556;28;20215;-46
2022/10/25 01:27:41;;;;;;;1.30;1.10;;;;;;;13.40;100.00;98622.91;4139488;28;20969;-47
2022/10/25 01:29:58;;;;;;;2.58;0.95;;;;;;;13.49;100.00;98624.06;4136625;28;20304;-46
2022/10/25 01:32:04;;;;;;;1.20;0.55;;;;;;;13.42;100.00;98622.63;4134108;28;20209;-47
2022/10/25 01:34:16;;;;;;;0.77;0.70;;;;;;;13.46;100.00;98621.00;4136478;28;20214;-47
2022/10/25 01:36:56;;;;;;;1.33;0.73;;;;;;;13.47;100.00;98619.91;4117590;28;20229;-46
2022/10/25 01:39:11;;;;;;;0.60;0.60;;;;;;;13.45;100.00;98611.94;4119090;28;20256;-46
2022/10/25 01:41:51;;;;;;;0.77;0.70;;;;;;;13.54;100.00;98621.34;4101450;28;20225;-47
2022/10/25 01:43:55;;;;;;;1.95;0.63;;;;;;;13.53;100.00;98619.69;4109807;28;20209;-46
2022/10/25 01:46:25;;;;;;;2.38;0.68;;;;;;;13.40;100.00;98620.16;4124808;28;20317;-47
2022/10/25 01:48:32;;;;;;;0.45;0.45;;;;;;;13.53;100.00;98614.19;4123061;28;20579;-46
2022/10/25 01:50:35;;;;;;;1.45;1.35;;;;;;;13.48;100.00;98616.91;4122083;28;20216;-48
2022/10/25 01:52:37;;;;;;;1.73;0.70;;;;;;;13.43;100.00;98607.81;4109018;28;20306;-47
2022/10/25 01:54:38;;;;;;;1.60;0.52;;;;;;;13.41;100.00;98616.31;4123786;28;20211;-47
2022/10/25 01:56:47;;;;;;;0.73;0.73;;;;;;;13.47;100.00;98618.00;4122121;28;20662;-46
2022/10/25 01:58:56;;;;;;;0.82;0.68;;;;;;;13.41;100.00;98616.31;4138252;28;20197;-47
2022/10/25 02:01:45;;;;;;;0.70;0.70;;;;;;;13.41;100.00;98620.97;4134516;28;20205;-46
2022/10/25 02:03:49;;;;;;;0.63;0.63;;;;;;;13.44;100.00;98615.75;4089163;28;20581;-47
2022/10/25 02:06:05;;;;;;;0.88;0.88;;;;;;;13.37;100.00;98617.91;4119783;28;20244;-46
2022/10/25 02:08:27;;;;;;;1.13;0.60;;;;;;;13.43;100.00;98614.13;4126211;28;20221;-47
2022/10/25 02:10:48;;;;;;;0.75;0.70;;;;;;;13.43;100.00;98611.38;4120647;28;20324;-47
2022/10/25 02:12:53;;;;;;;1.05;1.05;;;;;;;13.44;100.00;98614.97;4126107;28;20202;-46
2022/10/25 02:15:08;;;;;;;1.00;0.73;;;;;;;13.44;100.00;98614.97;4125046;28;20222;-48
2022/10/25 02:17:17;;;;;;;1.42;0.80;;;;;;;13.35;100.00;98608.28;4126752;28;20210;-46
2022/10/25 02:19:23;;;;;;;3.03;0.70;;;;;;;13.47;100.00;98615.25;4117959;28;20213;-47
2022/10/25 02:21:26;;;;;;;1.20;0.60;;;;;;;13.45;100.00;98609.19;4118866;28;20198;-47
2022/10/25 02:23:29;;;;;;;1.20;1.08;;;;;;;13.35;100.00;98614.63;4119532;28;20301;-47
2022/10/25 02:25:32;;;;;;;1.73;0.65;;;;;;;13.33;100.00;98610.47;4137435;28;20231;-46
2022/10/25 02:27:35;;;;;;;0.68;0.68;;;;;;;13.40;100.00;98609.16;4098627;28;20217;-46
2022/10/25 02:29:38;;;;;;;0.88;0.60;;;;;;;13.45;100.00;98609.19;4113534;28;20220;-47
2022/10/25 02:31:40;;;;;;;2.00;0.70;;;;;;;13.37;100.00;98609.69;4106633;28;20209;-49
2022/10/25 02:33:45;;;;;;;0.50;0.50;;;;;;;13.40;100.00;98617.41;4125062;28;20306;-47
2022/10/25 02:36:11;;;;;;;0.50;0.50;;;;;;;13.40;100.00;98609.16;4124776;28;20321;-47
2022/10/25 02:38:13;;;;;;;0.85;0.60;;;;;;;13.42;100.00;98606.97;4119678;28;20210;-47
2022/10/25 02:40:15;;;;;;;0.73;0.60;;;;;;;13.48;100.00;98605.06;4104457;28;20203;-46
2022/10/25 02:42:16;;;;;;;0.77;0.77;;;;;;;13.56;100.00;98602.66;4109445;28;20207;-47
2022/10/25 02:44:18;;;;;;;1.35;0.82;;;;;;;13.56;100.00;98610.88;4117625;28;20210;-48
2022/10/25 02:46:21;;;;;;;4.05;0.93;;;;;;;13.63;100.00;98603.22;4125118;28;20233;-46
2022/10/25 02:48:23;;;;;;;3.13;0.93;;;;;;;13.50;100.00;98603.72;4118506;28;20210;-46
2022/10/25 02:50:25;;;;;;;1.48;0.93;;;;;;;13.40;100.00;98606.41;4110314;28;20767;-46
2022/10/25 02:52:26;;;;;;;3.50;1.02;;;;;;;13.41;100.00;98605.31;4121159;28;20206;-47
2022/10/25 02:54:28;;;;;;;5.25;0.60;;;;;;;13.50;100.00;98609.22;4120994;28;20217;-47
2022/10/25 02:56:30;;;;;;;0.60;0.50;;;;;;;13.54;100.00;98607.59;4118795;28;20716;-47
2022/10/25 02:58:34;;;;;;;0.60;0.60;;;;;;;13.51;100.00;98605.34;4119748;28;20201;-48
2022/10/25 03:00:36;;;;;;;0.60;0.60;;;;;;;13.50;100.00;98611.97;4120099;28;20209;-47
2022/10/25 03:02:38;;;;;;;1.17;0.73;;;;;;;13.49;100.00;98613.06;4124495;28;20565;-47
2022/10/25 03:04:39;;;;;;;0.40;0.40;;;;;;;13.49;100.00;98615.81;4117875;28;20217;-47
2022/10/25 03:06:41;;;;;;;0.50;0.50;;;;;;;13.42;100.00;98623.47;4120819;28;20475;-47
2022/10/25 03:08:43;;;;;;;2.15;0.70;;;;;;;13.49;100.00;98615.81;4115797;28;20237;-48
2022/10/25 03:10:45;;;;;;;0.90;0.68;;;;;;;13.55;100.00;98614.75;4120846;28;20202;-47
2022/10/25 03:12:46;;;;;;;2.25;0.88;;;;;;;13.35;100.00;98611.88;4119057;28;20210;-46
2022/10/25 03:14:48;;;;;;;2.67;1.00;;;;;;;13.42;100.00;98617.13;4120334;28;20213;-47
2022/10/25 03:16:50;;;;;;;0.57;0.57;;;;;;;13.45;100.00;98617.44;4118225;28;20218;-46
2022/10/25 03:18:51;;;;;;;1.33;0.60;;;;;;;13.55;100.00;98617.50;4112482;28;20206;-46
2022/10/25 03:21:00;;;;;;;0.70;0.70;;;;;;;13.46;100.00;98621.84;4116867;28;20202;-47
2022/10/25 03:23:02;;;;;;;0.43;0.43;;;;;;;13.46;100.00;98619.09;4134311;28;20548;-47
2022/10/25 03:25:05;;;;;;;0.50;0.50;;;;;;;13.40;100.00;98617.41;4134254;28;20202;-47
2022/10/25 03:27:06;;;;;;;0.85;0.70;;;;;;;13.49;100.00;98621.31;4120150;28;20221;-47
2022/10/25 03:29:08;;;;;;;1.58;0.63;;;;;;;13.58;100.00;98627.94;4115898;28;20228;-48
2022/10/25 03:31:12;;;;;;;1.95;0.60;;;;;;;13.57;100.00;98626.28;4120969;28;20202;-46
2022/10/25 03:33:14;;;;;;;0.65;0.52;;;;;;;13.52;100.00;98630.94;4123956;28;20213;-47
2022/10/25 03:35:15;;;;;;;0.85;0.85;;;;;;;13.55;100.00;98628.50;4120372;28;20210;-47
2022/10/25 03:37:17;;;;;;;10.32;0.60;;;;;;;13.50;100.00;98628.44;4123808;28;20198;-47
2022/10/25 03:39:19;;;;;;;2.22;0.73;;;;;;;13.39;100.00;98628.66;4116139;28;20209;-47
2022/10/25 03:41:20;;;;;;;1.15;0.70;;;;;;;13.40;100.00;98633.91;4122265;28;20635;-47
2022/10/25 03:43:22;;;;;;;0.85;0.60;;;;;;;13.53;100.00;98636.19;4132354;28;20209;-46
2022/10/25 03:45:24;;;;;;;1.60;0.65;;;;;;;13.48;100.00;98636.16;4121635;28;20241;-46
2022/10/25 03:47:25;;;;;;;1.02;0.60;;;;;;;13.56;100.00;98635.63;4114584;28;20206;-47
2022/10/25 03:49:27;;;;;;;0.63;0.60;;;;;;;13.50;100.00;98631.19;4103494;28;20230;-47
2022/10/25 03:51:29;;;;;;;0.88;0.55;;;;;;;13.64;100.00;98635.13;4103052;28;20866;-47
2022/10/25 03:53:31;;;;;;;1.55;0.77;;;;;;;13.57;100.00;98644.72;4115230;28;20224;-47
2022/10/25 03:55:33;;;;;;;2.65;0.45;;;;;;;13.53;100.00;98636.19;4117691;28;20300;-46
2022/10/25 03:57:35;;;;;;;1.65;0.73;;;;;;;13.52;100.00;98651.03;4119963;28;20213;-47
2022/10/25 03:59:37;;;;;;;0.47;0.45;;;;;;;13.52;100.00;98650.19;4121458;28;20652;-47
2022/10/25 04:01:38;;;;;;;0.50;0.50;;;;;;;13.62;100.00;98647.47;4103681;28;20219;-47
2022/10/25 04:03:42;;;;;;;0.77;0.77;;;;;;;13.47;100.00;98648.25;4122854;28;20225;-47
2022/10/25 04:05:44;;;;;;;1.00;0.95;;;;;;;13.55;100.00;98650.47;4111528;28;20222;-47
2022/10/25 04:07:46;;;;;;;0.65;0.65;;;;;;;13.59;100.00;98646.13;4123869;28;20210;-47
2022/10/25 04:09:48;;;;;;;0.57;0.57;;;;;;;13.53;100.00;98647.19;4119977;28;20230;-46
2022/10/25 04:11:50;;;;;;;0.75;0.75;;;;;;;13.45;100.00;98633.94;4111876;28;21864;-47
2022/10/25 04:13:51;;;;;;;0.70;0.70;;;;;;;13.50;100.00;98635.88;4117415;28;20244;-47
2022/10/25 04:15:53;;;;;;;3.33;1.15;;;;;;;13.45;100.00;98638.59;4135368;28;20616;-47
2022/10/25 04:17:55;;;;;;;0.80;0.60;;;;;;;13.44;100.00;98626.75;4120844;28;20301;-47
2022/10/25 04:19:56;;;;;;;0.60;0.60;;;;;;;13.46;100.00;98638.34;4133636;28;20205;-46
2022/10/25 04:22:01;;;;;;;0.95;0.68;;;;;;;13.52;100.00;98633.69;4109772;28;20632;-46
2022/10/25 04:24:02;;;;;;;0.82;0.68;;;;;;;13.48;100.00;98635.31;4117203;28;20210;-46
2022/10/25 04:26:05;;;;;;;0.75;0.73;;;;;;;13.54;100.00;98643.34;4134212;28;20237;-47
2022/10/25 04:28:06;;;;;;;1.23;1.13;;;;;;;13.56;100.00;98640.31;4134519;28;20205;-46
2022/10/25 04:30:08;;;;;;;0.55;0.55;;;;;;;13.59;100.00;98640.63;4117985;28;20224;-46
2022/10/25 04:32:10;;;;;;;0.73;0.50;;;;;;;13.53;100.00;98643.59;4118939;28;20296;-47
2022/10/25 04:34:12;;;;;;;1.27;0.93;;;;;;;13.52;100.00;98640.03;4114513;28;20237;-48
2022/10/25 04:36:14;;;;;;;0.77;0.60;;;;;;;13.59;100.00;98646.13;4131844;28;20233;-46
2022/10/25 04:38:15;;;;;;;1.05;0.73;;;;;;;13.56;100.00;98645.81;4118746;28;20843;-47
2022/10/25 04:40:17;;;;;;;3.85;1.13;;;;;;;13.59;100.00;98651.63;4118600;28;20618;-47
2022/10/25 04:42:25;;;;;;;1.70;1.60;;;;;;;13.61;100.00;98652.19;4118100;28;20292;-46
2022/10/25 04:44:26;;;;;;;1.60;0.52;;;;;;;13.59;100.00;98645.28;4117688;28;20210;-47
2022/10/25 04:46:28;;;;;;;1.55;0.70;;;;;;;13.58;100.00;98644.44;4117659;28;20225;-49
2022/10/25 04:48:30;;;;;;;0.95;0.60;;;;;;;13.54;100.00;98648.84;4116794;28;20230;-48
2022/10/25 04:50:36;;;;;;;0.93;0.70;;;;;;;13.55;100.00;98652.38;4131211;28;20210;-48
2022/10/25 04:52:38;;;;;;;0.47;0.47;;;;;;;13.45;100.00;98650.44;4118826;28;20220;-48
2022/10/25 04:54:40;;;;;;;1.02;0.65;;;;;;;13.43;100.00;98652.59;4112433;28;20553;-48
2022/10/25 04:56:42;;;;;;;1.13;0.85;;;;;;;13.42;100.00;98655.59;4119418;28;20232;-47
2022/10/25 04:58:43;;;;;;;0.60;0.60;;;;;;;13.41;100.00;98649.31;4120350;28;20202;-47
2022/10/25 05:00:46;;;;;;;0.77;0.60;;;;;;;13.38;100.00;98658.06;4110513;28;20202;-48
2022/10/25 05:02:51;;;;;;;2.22;0.80;;;;;;;13.40;100.00;98658.66;4094757;28;20207;-48
2022/10/25 05:04:52;;;;;;;0.50;0.50;;;;;;;13.45;100.00;98661.44;4104343;28;20222;-47
2022/10/25 05:06:54;;;;;;;2.45;1.20;;;;;;;13.45;100.00;98661.44;4116087;28;20230;-47
2022/10/25 05:08:56;;;;;;;0.65;0.52;;;;;;;13.52;100.00;98667.53;4134333;28;20222;-47
2022/10/25 05:10:57;;;;;;;2.15;0.88;;;;;;;13.55;100.00;98666.13;4120198;28;20202;-48
2022/10/25 05:13:00;;;;;;;2.72;0.85;;;;;;;13.48;100.00;98665.53;4120826;28;20252;-47
2022/10/25 05:15:02;;;;;;;1.55;0.90;;;;;;;13.41;100.00;98670.44;4102250;28;20207;-48
2022/10/25 05:17:04;;;;;;;0.95;0.70;;;;;;;13.31;100.00;98670.38;4101481;28;20217;-50
2022/10/25 05:19:06;;;;;;;6.53;1.05;;;;;;;13.30;100.00;98664.06;4134370;28;20300;-49
2022/10/25 05:21:08;;;;;;;0.60;0.60;;;;;;;13.31;100.00;98664.91;4117919;28;20591;-49
2022/10/25 05:23:10;;;;;;;0.70;0.70;;;;;;;13.26;100.00;98668.44;4133033;28;20249;-47
2022/10/25 05:25:12;;;;;;;0.77;0.77;;;;;;;13.28;100.00;98674.50;4114197;28;22735;-49
2022/10/25 05:27:14;;;;;;;3.03;0.90;;;;;;;13.27;100.00;98675.59;4120948;28;20238;-47
2022/10/25 05:29:15;;;;;;;0.70;0.70;;;;;;;13.36;100.00;98670.44;4109646;28;20389;-47
2022/10/25 05:31:21;;;;;;;1.80;1.70;;;;;;;13.29;100.00;98678.88;4110503;28;20297;-48
2022/10/25 05:33:23;;;;;;;2.97;1.00;;;;;;;13.27;100.00;98674.75;4116440;28;20210;-47
2022/10/25 05:35:24;;;;;;;3.03;0.70;;;;;;;13.27;100.00;98681.09;4115042;28;20250;-47
2022/10/25 05:37:26;;;;;;;0.80;0.65;;;;;;;13.25;100.00;98688.75;4119061;28;20345;-47
2022/10/25 05:39:28;;;;;;;1.15;0.90;;;;;;;13.25;100.00;98682.44;4116599;28;20233;-48
2022/10/25 05:41:30;;;;;;;1.13;0.95;;;;;;;13.31;100.00;98682.19;4120364;28;20209;-48
2022/10/25 05:43:37;;;;;;;3.63;0.75;;;;;;;13.20;100.00;98685.97;4105050;28;20883;-47
2022/10/25 05:45:39;;;;;;;1.75;1.40;;;;;;;13.16;100.00;98684.84;4118349;28;20229;-47
2022/10/25 05:47:41;;;;;;;0.95;0.80;;;;;;;13.15;100.00;98687.84;4120628;28;20219;-46
2022/10/25 05:49:42;;;;;;;1.92;1.67;;;;;;;13.08;100.00;98685.31;4118742;28;20252;-47
2022/10/25 05:51:44;;;;;;;1.65;0.95;;;;;;;13.28;100.00;98693.72;4103495;28;20211;-47
2022/10/25 05:53:50;;;;;;;1.58;1.25;;;;;;;13.19;100.00;98694.47;4119629;28;20305;-48
2022/10/25 05:55:52;;;;;;;0.80;0.80;;;;;;;13.27;100.00;98694.81;4125835;28;20230;-48
2022/10/25 05:57:53;;;;;;;2.72;0.90;;;;;;;13.33;100.00;98701.19;4122192;28;20220;-47
2022/10/25 05:59:55;;;;;;;1.95;0.75;;;;;;;13.35;100.00;98699.00;4121122;28;20233;-47
2022/10/25 06:01:57;;;;;;;5.30;1.63;;;;;;;13.22;100.00;98693.94;4114200;28;20650;-47
2022/10/25 06:03:59;;;;;;;1.73;1.63;;;;;;;13.23;100.00;98701.94;4118816;28;20551;-47
2022/10/25 06:06:02;;;;;;;1.45;0.82;;;;;;;13.23;100.00;98707.41;4117025;28;20349;-47
2022/10/25 06:08:04;;;;;;;1.65;1.10;;;;;;;13.26;100.00;98715.16;4108952;28;20392;-47
2022/10/25 06:10:06;;;;;;;1.23;0.80;;;;;;;13.16;100.00;98706.00;4120994;28;20677;-47
2022/10/25 06:12:11;;;;;;;1.95;1.58;;;;;;;13.22;100.00;98711.28;4121303;28;20218;-47
2022/10/25 06:14:13;;;;;;;1.10;1.00;;;;;;;13.23;100.00;98712.91;4120753;28;20212;-48
2022/10/25 06:16:16;;;;;;;4.90;1.02;;;;;;;13.23;100.00;98712.91;4106058;28;20333;-47
2022/10/25 06:18:18;;;;;;;1.25;1.15;;;;;;;13.27;100.00;98714.06;4119289;28;20207;-46
2022/10/25 06:20:19;;;;;;;4.50;1.40;;;;;;;13.20;100.00;98718.13;4123158;28;20216;-48
2022/10/25 06:22:21;;;;;;;1.25;0.70;;;;;;;13.23;100.00;98717.59;4121275;28;20305;-47
2022/10/25 06:24:22;;;;;;;1.88;0.85;;;;;;;13.31;100.00;98720.69;4122079;28;20206;-47
2022/10/25 06:26:27;;;;;;;4.97;1.75;;;;;;;13.20;100.00;98718.13;4113789;28;20249;-48
2022/10/25 06:28:32;;;;;;;2.83;1.05;;;;;;;13.27;100.00;98730.56;4116522;28;20210;-47
2022/10/25 06:30:34;;;;;;;0.73;0.73;;;;;;;13.27;100.00;98736.06;4115947;28;20242;-46
2022/10/25 06:32:36;;;;;;;1.42;1.08;;;;;;;13.26;100.00;98728.06;4122265;28;20217;-48
2022/10/25 06:34:41;;;;;;;4.97;0.90;;;;;;;13.20;100.00;98729.94;4123218;28;20206;-47
2022/10/25 06:36:43;;;;;;;2.10;0.88;;;;;;;13.21;100.00;98739.84;4137256;28;20759;-47
2022/10/25 06:38:46;;;;;;;1.08;0.90;;;;;;;13.17;100.00;98730.44;4116336;28;20206;-47
2022/10/25 06:40:48;;;;;;;3.28;0.93;;;;;;;13.24;100.00;98730.25;4121314;28;20719;-47
2022/10/25 06:42:54;;;;;;;1.80;1.08;;;;;;;13.25;100.00;98738.22;4122374;28;20210;-46
2022/10/25 06:44:55;;;;;;;0.95;0.90;;;;;;;13.20;100.00;98740.94;4121706;28;20245;-46
2022/10/25 06:46:59;;;;;;;5.68;1.25;;;;;;;13.20;100.00;98751.94;4120488;28;20222;-45
2022/10/25 06:49:21;;;;;;;0.85;0.85;;;;;;;13.28;100.00;98748.69;4121561;28;20319;-45
2022/10/25 06:51:24;;;;;;;1.17;0.82;;;;;;;13.22;100.00;98748.91;4109363;28;20234;-45
2022/10/25 06:53:25;;;;;;;2.22;2.13;;;;;;;13.26;100.00;98745.41;4126978;28;20293;-45
2022/10/25 06:55:27;;;;;;;3.78;1.25;;;;;;;13.24;100.00;98753.03;4118179;28;20272;-47
2022/10/25 06:57:29;;;;;;;1.20;1.13;;;;;;;13.27;100.00;98760.78;4119635;28;20207;-46
2022/10/25 06:59:30;;;;;;;3.08;1.10;;;;;;;13.29;100.00;98757.78;4120474;28;20633;-46
2022/10/25 07:01:32;;;;;;;5.70;1.10;;;;;;;13.31;100.00;98764.66;4106483;28;20764;-45
2022/10/25 07:03:34;;;;;;;2.90;1.30;;;;;;;13.29;100.00;98766.84;4119559;28;20214;-46
2022/10/25 07:05:36;;;;;;;2.17;0.95;;;;;;;13.28;100.00;98765.19;4136562;28;20248;-46
2022/10/25 07:07:38;;;;;;;1.35;0.82;;;;;;;13.31;100.00;98759.16;4118720;28;20202;-45
2022/10/25 07:09:42;;;;;;;1.50;0.93;;;;;;;13.24;100.00;98758.53;4137345;28;20690;-45
2022/10/25 07:11:44;;;;;;;1.13;0.70;;;;;;;13.29;100.00;98761.34;4120742;28;20206;-45
2022/10/25 07:13:46;;;;;;;1.05;1.05;;;;;;;13.29;100.00;98766.03;4121435;28;20217;-44
2022/10/25 07:15:48;;;;;;;1.25;0.80;;;;;;;13.32;100.00;98769.09;4123106;28;20249;-47
2022/10/25 07:17:50;;;;;;;8.95;1.95;;;;;;;13.31;100.00;98775.66;4121325;28;20209;-47
2022/10/25 07:19:51;;;;;;;1.13;0.70;;;;;;;13.38;100.00;98776.25;4119876;28;20206;-45
2022/10/25 07:21:53;;;;;;;1.35;1.27;;;;;;;13.31;100.00;98781.16;4115930;28;20258;-46
2022/10/25 07:23:55;;;;;;;0.60;0.60;;;;;;;13.31;100.00;98769.34;4120415;28;20209;-47
2022/10/25 07:25:57;;;;;;;0.85;0.70;;;;;;;13.34;100.00;98772.41;4136606;28;20220;-47
2022/10/25 07:27:59;;;;;;;1.38;0.73;;;;;;;13.34;100.00;98771.56;4106713;28;20268;-45
2022/10/25 07:30:00;;;;;;;5.22;1.08;;;;;;;13.38;100.00;98773.50;4119292;28;20256;-46
2022/10/25 07:32:02;;;;;;;1.23;0.80;;;;;;;13.36;100.00;98767.44;4134560;28;20208;-46
2022/10/25 07:34:04;;;;;;;2.00;0.90;;;;;;;13.41;100.00;98767.50;4115323;28;20214;-47
2022/10/25 07:36:07;;;;;;;1.25;1.25;;;;;;;13.35;100.00;98771.28;4119647;28;20304;-47
2022/10/25 07:38:13;;;;;;;2.65;0.93;;;;;;;13.39;100.00;98774.34;4123362;28;20590;-48
2022/10/25 07:40:14;;;;;;;2.38;1.10;;;;;;;13.43;100.00;98779.06;4123544;28;20674;-47
2022/10/25 07:42:16;;;;;;;1.25;0.90;;;;;;;13.39;100.00;98775.19;4135541;28;20206;-46
2022/10/25 07:44:18;;;;;;;0.90;0.75;;;;;;;13.41;100.00;98784.00;4120848;28;20572;-47
2022/10/25 07:46:28;;;;;;;0.77;0.70;;;;;;;13.46;100.00;98781.31;4137476;28;20755;-46
2022/10/25 07:48:29;;;;;;;5.25;1.50;;;;;;;13.49;100.00;98783.50;4121282;28;20301;-46
2022/10/25 07:50:31;;;;;;;0.80;0.80;;;;;;;13.47;100.00;98788.44;4105170;28;20230;-47
2022/10/25 07:52:33;;;;;;;1.05;0.90;;;;;;;13.54;100.00;98790.97;4116182;28;20313;-47
2022/10/25 07:54:34;;;;;;;5.45;0.90;;;;;;;13.57;100.00;98795.97;4120561;28;20210;-46
2022/10/25 07:56:39;;;;;;;6.10;0.93;;;;;;;13.57;100.00;98796.78;4105514;28;20286;-47
2022/10/25 07:58:41;;;;;;;2.55;1.55;;;;;;;13.50;100.00;98801.66;4120421;28;20253;-46
2022/10/25 08:00:43;;;;;;;4.50;0.90;;;;;;;13.57;100.00;98801.47;4125880;28;20202;-47
2022/10/25 08:02:44;;;;;;;2.75;1.02;;;;;;;13.63;100.00;98801.22;4105557;28;20270;-47
2022/10/25 08:04:46;;;;;;;2.45;1.20;;;;;;;13.70;100.00;98804.59;4122240;28;20211;-46
2022/10/25 08:06:52;;;;;;;4.78;0.90;;;;;;;13.80;100.00;98807.44;4134468;28;20221;-46
2022/10/25 08:08:54;;;;;;;4.97;1.10;;;;;;;13.75;100.00;98807.38;4119905;28;20205;-46
2022/10/25 08:10:56;;;;;;;2.05;0.95;;;;;;;13.82;100.00;98810.72;4107159;28;20634;-47
2022/10/25 08:12:58;;;;;;;1.13;0.70;;;;;;;13.88;100.00;98814.34;4122822;28;20297;-47
2022/10/25 08:14:59;;;;;;;0.90;0.90;;;;;;;14.04;100.00;98814.19;4120170;28;20321;-47
2022/10/25 08:17:01;;;;;;;3.08;0.98;;;;;;;14.12;100.00;98805.47;4131569;28;20667;-46
2022/10/25 08:19:03;;;;;;;1.88;0.98;;;;;;;14.05;100.00;98821.38;4099699;28;20290;-46
2022/10/25 08:21:05;;;;;;;0.82;0.82;;;;;;;14.05;100.00;98807.63;4115191;28;20241;-46
2022/10/25 08:23:06;;;;;;;1.52;1.35;;;;;;;14.11;100.00;98808.47;4134320;28;20296;-49
2022/10/25 08:25:08;;;;;;;1.35;0.90;;;;;;;14.21;100.00;98803.03;4103313;28;20245;-47
2022/10/25 08:27:10;;;;;;;1.95;1.02;;;;;;;14.22;100.00;98811.03;4108990;28;20202;-46
2022/10/25 08:29:12;;;;;;;0.75;0.75;;;;;;;14.31;100.00;98820.44;4116746;28;20740;-45
2022/10/25 08:31:13;;;;;;;2.05;1.00;;;;;;;14.41;100.00;98805.91;4118652;28;20719;-46
2022/10/25 08:33:15;;;;;;;2.08;1.23;;;;;;;14.58;100.00;98810.13;4135400;28;20240;-49
2022/10/25 08:35:17;;;;;;;1.52;1.52;;;;;;;14.64;100.00;98808.25;4120318;28;20296;-47
2022/10/25 08:37:19;;;;;;;3.63;0.80;;;;;;;14.66;100.00;98806.88;4105894;28;20212;-47
2022/10/25 08:39:20;;;;;;;0.80;0.80;;;;;;;14.64;100.00;98814.56;4118932;28;20210;-46
2022/10/25 08:41:39;;;;;;;1.95;1.08;;;;;;;14.70;100.00;98810.72;4120051;28;20212;-45
2022/10/25 08:43:53;;;;;;;2.45;0.90;;;;;;;14.64;100.00;98809.06;4114646;28;20309;-46
2022/10/25 08:46:09;;;;;;;0.82;0.80;;;;;;;14.66;100.00;98812.38;4119004;28;20660;-47
2022/10/25 08:48:15;;;;;;;0.80;0.80;;;;;;;14.54;100.00;98817.28;4121955;28;20301;-45
2022/10/25 08:50:23;;;;;;;1.33;1.08;;;;;;;14.56;100.00;98826.09;4132572;28;20225;-46
2022/10/25 08:52:38;;;;;;;2.00;0.85;;;;;;;14.67;100.00;98822.31;4116424;28;20638;-46
2022/10/25 08:54:41;;;;;;;0.82;0.75;;;;;;;14.60;100.00;98830.00;4133168;28;20533;-48
2022/10/25 08:56:44;;;;;;;0.80;0.77;;;;;;;14.72;100.00;98827.84;4123201;28;20361;-46
2022/10/25 08:59:06;;;;;;;2.47;1.00;;;;;;;14.60;100.00;98821.72;4124469;28;20215;-46
2022/10/25 09:01:35;;;;;;;1.42;1.33;;;;;;;14.71;100.00;98823.41;4118318;28;20261;-46
2022/10/25 09:03:38;;;;;;;2.15;1.05;;;;;;;14.74;100.00;98825.63;4115677;28;20626;-46
2022/10/25 09:06:08;;;;;;;3.42;1.20;;;;;;;14.94;100.00;98824.88;4105721;28;20230;-45
2022/10/25 09:08:31;;;;;;;2.05;0.95;;;;;;;14.94;100.00;98820.22;4133075;28;20213;-46
2022/10/25 09:10:51;;;;;;;11.48;1.45;;;;;;;14.95;100.00;98819.09;4118532;28;20233;-46
2022/10/25 09:13:04;;;;;;;5.43;1.83;;;;;;;14.95;100.00;98816.34;4127609;28;20694;-47
2022/10/25 09:15:28;;;;;;;1.95;0.70;;;;;;;14.99;100.00;98817.47;4117434;28;20264;-47
2022/10/25 09:17:59;;;;;;;1.77;1.40;;;;;;;15.03;100.00;98818.56;4114490;28;20280;-46
2022/10/25 09:20:19;;;;;;;1.38;0.68;;;;;;;15.17;100.00;98816.94;4120216;28;20207;-47
2022/10/25 09:22:27;;;;;;;3.70;0.85;;;;;;;15.24;100.00;98825.78;4124383;28;20727;-46
2022/10/25 09:24:46;;;;;;;0.85;0.80;;;;;;;15.30;100.00;98824.69;4121476;28;20213;-47
2022/10/25 09:26:53;;;;;;;3.50;1.25;;;;;;;15.37;100.00;98825.28;4126671;28;20232;-46
2022/10/25 09:29:01;;;;;;;0.88;0.65;;;;;;;15.42;100.00;98824.50;4126687;28;20216;-47
2022/10/25 09:31:03;;;;;;;2.75;1.10;;;;;;;15.56;100.00;98834.69;4123282;28;20218;-46
2022/10/25 09:33:10;;;;;;;1.55;0.85;;;;;;;15.58;100.00;98828.91;4125522;28;20217;-47
2022/10/25 09:35:15;;;;;;;1.42;0.70;;;;;;;15.50;100.00;98830.28;4124621;28;20261;-46
2022/10/25 09:37:27;;;;;;;0.75;0.75;;;;;;;15.76;100.00;98828.38;4127536;28;20642;-47
2022/10/25 09:39:39;;;;;;;5.50;0.90;;;;;;;15.62;100.00;98832.81;4108646;28;20838;-46
2022/10/25 09:41:44;;;;;;;3.13;1.30;;;;;;;15.77;100.00;98830.84;4125416;28;20233;-47